createdAt,value
2022-08-03T00:01:30.526Z,84.30
2022-08-03T00:03:35.107Z,84.10
2022-08-03T00:05:40.193Z,84.00
2022-08-03T00:08:06.136Z,83.60
2022-08-03T00:10:11.352Z,83.50
2022-08-03T00:12:15.875Z,83.50
2022-08-03T00:14:20.307Z,83.40
2022-08-03T00:16:25.250Z,83.20
2022-08-03T00:18:29.499Z,83.20
2022-08-03T00:20:33.910Z,83.80
2022-08-03T00:22:38.127Z,84.80
2022-08-03T00:24:43.678Z,85.80
2022-08-03T00:26:47.938Z,86.70
2022-08-03T00:28:52.148Z,87.90
2022-08-03T00:30:56.910Z,88.70
2022-08-03T00:33:01.449Z,90.20
2022-08-03T00:35:08.386Z,90.30
2022-08-03T00:37:14.012Z,90.00
2022-08-03T00:39:18.229Z,89.20
2022-08-03T00:41:23.876Z,88.40
2022-08-03T00:43:28.422Z,87.80
2022-08-03T00:45:34.229Z,87.50
2022-08-03T00:47:38.445Z,86.80
2022-08-03T00:49:43.283Z,86.70
2022-08-03T00:51:48.150Z,86.70
2022-08-03T00:53:52.844Z,86.20
2022-08-03T00:55:58.938Z,85.50
2022-08-03T00:58:06.729Z,85.10
2022-08-03T01:00:13.349Z,84.70
2022-08-03T01:02:17.680Z,84.50
2022-08-03T01:04:22.053Z,84.20
2022-08-03T01:06:35.037Z,84.00
2022-08-03T01:08:47.789Z,83.80
2022-08-03T01:11:04.276Z,83.60
2022-08-03T01:14:03.650Z,84.20
2022-08-03T01:15:53.640Z,83.90
2022-08-03T01:18:00.765Z,83.90
2022-08-03T01:20:09.676Z,84.10
2022-08-03T01:22:33.234Z,85.70
2022-08-03T01:25:18.840Z,86.30
2022-08-03T01:27:27.248Z,87.80
2022-08-03T01:30:03.560Z,88.10
2022-08-03T01:32:59.469Z,88.00
2022-08-03T01:34:43.858Z,87.50
2022-08-03T01:36:54.944Z,87.00
2022-08-03T01:39:02.436Z,86.40
2022-08-03T01:41:10.011Z,86.10
2022-08-03T01:44:26.486Z,85.80
2022-08-03T01:45:47.311Z,85.40
2022-08-03T01:47:53.066Z,85.10
2022-08-03T01:49:59.279Z,84.80
2022-08-03T01:52:05.551Z,84.50
2022-08-03T01:54:12.438Z,84.60
2022-08-03T01:56:19.456Z,85.30
2022-08-03T01:58:25.860Z,86.70
2022-08-03T02:00:31.066Z,87.90
2022-08-03T02:02:38.563Z,89.20
2022-08-03T02:04:44.933Z,89.10
2022-08-03T02:07:01.651Z,89.00
2022-08-03T02:09:07.907Z,88.40
2022-08-03T02:11:13.760Z,87.80
2022-08-03T02:13:20.669Z,87.50
2022-08-03T02:15:26.073Z,86.90
2022-08-03T02:17:38.938Z,86.50
2022-08-03T02:19:46.705Z,86.20
2022-08-03T02:21:56.602Z,85.90
2022-08-03T02:24:06.795Z,85.70
2022-08-03T02:26:15.867Z,85.50
2022-08-03T02:28:22.167Z,85.30
2022-08-03T02:30:37.078Z,85.00
2022-08-03T02:32:43.861Z,84.90
2022-08-03T02:34:52.797Z,84.70
2022-08-03T02:37:01.434Z,84.60
2022-08-03T02:39:06.180Z,84.70
2022-08-03T02:41:16.047Z,84.60
2022-08-03T02:43:21.785Z,84.60
2022-08-03T02:45:28.226Z,84.50
2022-08-03T02:47:53.144Z,85.10
2022-08-03T02:50:02.949Z,84.50
2022-08-03T02:52:13.246Z,84.40
2022-08-03T02:54:21.184Z,84.50
2022-08-03T02:56:26.861Z,84.30
2022-08-03T02:58:32.523Z,84.50
2022-08-03T03:00:37.939Z,84.40
2022-08-03T03:02:44.490Z,84.40
2022-08-03T03:05:52.106Z,84.30
2022-08-03T03:07:19.817Z,84.30
2022-08-03T03:09:24.917Z,84.20
2022-08-03T03:11:45.420Z,84.10
2022-08-03T03:13:50.991Z,84.10
2022-08-03T03:15:56.154Z,84.00
2022-08-03T03:18:02.375Z,83.90
2022-08-03T03:20:08.952Z,83.30
2022-08-03T03:22:15.363Z,82.70
2022-08-03T03:24:21.969Z,82.30
2022-08-03T03:26:26.355Z,81.70
2022-08-03T03:28:31.768Z,80.80
2022-08-03T03:30:36.152Z,80.40
2022-08-03T03:32:41.143Z,79.70
2022-08-03T03:34:46.059Z,79.30
2022-08-03T03:36:51.735Z,79.30
2022-08-03T03:38:58.252Z,78.90
2022-08-03T03:41:04.474Z,78.70
2022-08-03T03:43:10.107Z,78.70
2022-08-03T03:45:14.813Z,78.60
2022-08-03T03:47:32.427Z,78.20
2022-08-03T03:49:38.087Z,78.10
2022-08-03T03:51:42.272Z,78.60
2022-08-03T03:53:59.913Z,77.80
2022-08-03T03:56:05.888Z,78.20
2022-08-03T03:58:10.374Z,78.40
2022-08-03T04:00:16.355Z,78.60
2022-08-03T04:02:20.545Z,77.90
2022-08-03T04:04:41.949Z,76.50
2022-08-03T04:07:03.577Z,76.70
2022-08-03T04:09:27.597Z,76.60
2022-08-03T04:11:39.752Z,77.00
2022-08-03T04:13:48.655Z,76.50
2022-08-03T04:15:54.161Z,77.20
2022-08-03T04:18:00.242Z,77.50
2022-08-03T04:20:05.813Z,79.30
2022-08-03T04:22:13.568Z,78.70
2022-08-03T04:24:19.058Z,79.40
2022-08-03T04:26:26.852Z,80.50
2022-08-03T04:28:33.652Z,80.10
2022-08-03T04:30:39.985Z,79.90
2022-08-03T04:32:50.926Z,79.30
2022-08-03T04:34:56.142Z,78.70
2022-08-03T04:37:03.043Z,79.00
2022-08-03T04:39:10.326Z,78.80
2022-08-03T04:41:15.341Z,79.70
2022-08-03T04:43:20.661Z,79.20
2022-08-03T04:45:27.166Z,78.20
2022-08-03T04:47:33.670Z,77.40
2022-08-03T04:49:38.984Z,77.80
2022-08-03T04:51:43.684Z,77.70
2022-08-03T04:53:48.006Z,77.30
2022-08-03T04:55:52.240Z,77.20
2022-08-03T04:57:56.437Z,76.40
2022-08-03T05:00:03.333Z,75.30
2022-08-03T05:02:12.165Z,74.80
2022-08-03T05:04:16.485Z,74.10
2022-08-03T05:06:20.699Z,74.90
2022-08-03T05:08:29.485Z,73.70
2022-08-03T05:10:33.679Z,74.10
2022-08-03T05:12:37.995Z,74.30
2022-08-03T05:14:42.158Z,75.40
2022-08-03T05:16:46.359Z,74.40
2022-08-03T05:18:51.883Z,74.30
2022-08-03T05:20:56.133Z,75.10
2022-08-03T05:23:01.616Z,75.40
2022-08-03T05:25:06.649Z,75.30
2022-08-03T05:27:17.458Z,75.30
2022-08-03T05:29:21.923Z,75.50
2022-08-03T05:31:26.074Z,77.10
2022-08-03T05:33:30.305Z,76.50
2022-08-03T05:35:57.883Z,76.40
2022-08-03T05:38:00.422Z,77.00
2022-08-03T05:40:05.341Z,76.30
2022-08-03T05:42:10.682Z,72.70
2022-08-03T05:44:15.018Z,73.30
2022-08-03T05:46:19.364Z,73.30
2022-08-03T05:48:23.486Z,72.50
2022-08-03T05:50:27.660Z,72.70
2022-08-03T05:52:33.297Z,72.50
2022-08-03T05:54:55.619Z,71.40
2022-08-03T05:57:01.294Z,70.60
2022-08-03T05:59:22.700Z,69.10
2022-08-03T06:01:31.804Z,67.90
2022-08-03T06:03:36.093Z,68.30
2022-08-03T06:05:43.436Z,68.50
2022-08-03T06:08:01.220Z,68.60
2022-08-03T06:10:36.610Z,69.50
2022-08-03T06:12:31.227Z,68.70
2022-08-03T06:14:35.432Z,69.40
2022-08-03T06:16:39.649Z,70.70
2022-08-03T06:18:44.035Z,71.40
2022-08-03T06:20:49.569Z,72.60
2022-08-03T06:23:00.386Z,72.40
2022-08-03T06:25:10.248Z,73.10
2022-08-03T06:27:17.410Z,72.60
2022-08-03T06:29:21.666Z,70.70
2022-08-03T06:31:33.174Z,70.70
2022-08-03T06:34:31.218Z,71.30
2022-08-03T06:36:02.466Z,71.80
2022-08-03T06:38:06.824Z,72.00
2022-08-03T06:40:14.144Z,71.70
2022-08-03T06:42:18.590Z,72.70
2022-08-03T06:44:25.008Z,72.90
2022-08-03T06:46:29.257Z,72.60
2022-08-03T06:48:33.620Z,72.10
2022-08-03T06:50:39.654Z,72.30
2022-08-03T06:52:43.827Z,72.20
2022-08-03T06:54:48.159Z,71.80
2022-08-03T06:56:53.751Z,71.50
2022-08-03T06:58:57.987Z,71.10
2022-08-03T07:01:02.492Z,70.70
2022-08-03T07:03:06.782Z,70.10
2022-08-03T07:05:17.083Z,69.30
2022-08-03T07:07:21.577Z,68.20
2022-08-03T07:09:26.901Z,66.60
2022-08-03T07:11:31.077Z,65.50
2022-08-03T07:13:36.662Z,66.20
2022-08-03T07:15:55.684Z,66.40
2022-08-03T07:18:00.370Z,65.50
2022-08-03T07:20:07.799Z,64.00
2022-08-03T07:22:11.996Z,65.50
2022-08-03T07:24:16.308Z,64.60
2022-08-03T07:26:20.709Z,65.70
2022-08-03T07:28:25.026Z,65.20
2022-08-03T07:30:30.788Z,64.90
2022-08-03T07:32:35.601Z,65.20
2022-08-03T07:34:58.466Z,63.90
2022-08-03T07:37:04.641Z,64.30
2022-08-03T07:39:15.354Z,63.60
2022-08-03T07:41:22.355Z,64.00
2022-08-03T07:43:26.527Z,64.60
2022-08-03T07:45:33.302Z,63.80
2022-08-03T07:47:37.605Z,63.00
2022-08-03T07:49:42.519Z,63.00
2022-08-03T07:52:06.766Z,63.20
2022-08-03T07:54:11.335Z,62.10
2022-08-03T07:56:17.024Z,61.80
2022-08-03T07:58:24.350Z,61.10
2022-08-03T08:00:28.866Z,60.70
2022-08-03T08:02:34.464Z,59.70
2022-08-03T08:04:38.714Z,60.70
2022-08-03T08:06:42.875Z,61.50
2022-08-03T08:08:48.111Z,60.10
2022-08-03T08:10:58.299Z,59.20
2022-08-03T08:13:03.121Z,60.00
2022-08-03T08:15:09.796Z,61.50
2022-08-03T08:17:14.013Z,62.30
2022-08-03T08:19:19.666Z,62.30
2022-08-03T08:21:26.277Z,61.90
2022-08-03T08:23:56.934Z,61.30
2022-08-03T08:26:02.099Z,60.50
2022-08-03T08:28:29.459Z,59.70
2022-08-03T08:30:34.421Z,59.20
2022-08-03T08:32:39.565Z,59.70
2022-08-03T08:34:45.310Z,59.90
2022-08-03T08:36:49.567Z,60.20
2022-08-03T08:38:53.864Z,59.80
2022-08-03T08:40:58.574Z,59.60
2022-08-03T08:43:04.228Z,59.40
2022-08-03T08:45:09.825Z,58.40
2022-08-03T08:47:15.425Z,58.20
2022-08-03T08:49:29.051Z,59.70
2022-08-03T08:51:50.999Z,60.10
2022-08-03T08:54:04.347Z,59.80
2022-08-03T08:56:13.041Z,60.20
2022-08-03T08:58:20.974Z,59.40
2022-08-03T09:00:25.519Z,59.80
2022-08-03T09:02:32.091Z,58.80
2022-08-03T09:04:36.440Z,58.80
2022-08-03T09:06:53.706Z,58.20
2022-08-03T09:09:08.335Z,59.20
2022-08-03T09:11:12.876Z,59.70
2022-08-03T09:13:17.487Z,60.20
2022-08-03T09:15:24.545Z,60.50
2022-08-03T09:17:41.679Z,60.50
2022-08-03T09:20:04.504Z,60.70
2022-08-03T09:22:13.248Z,60.90
2022-08-03T09:24:40.617Z,60.70
2022-08-03T09:26:54.097Z,59.90
2022-08-03T09:29:05.677Z,60.10
2022-08-03T09:31:13.879Z,60.40
2022-08-03T09:33:18.047Z,59.50
2022-08-03T09:35:51.767Z,59.70
2022-08-03T09:38:12.869Z,59.90
2022-08-03T09:40:36.529Z,59.70
2022-08-03T09:42:57.968Z,59.10
2022-08-03T09:45:02.413Z,58.50
2022-08-03T09:47:08.256Z,57.70
2022-08-03T09:49:13.860Z,57.70
2022-08-03T09:52:30.277Z,58.50
2022-08-03T09:53:57.001Z,59.00
2022-08-03T09:56:33.753Z,58.20
2022-08-03T09:58:31.047Z,59.20
2022-08-03T10:00:55.322Z,59.90
2022-08-03T10:03:06.384Z,59.60
2022-08-03T10:05:19.611Z,59.80
2022-08-03T10:07:25.895Z,59.60
2022-08-03T10:09:31.614Z,59.30
2022-08-03T10:11:40.826Z,58.60
2022-08-03T10:13:45.943Z,56.80
2022-08-03T10:16:22.504Z,57.30
2022-08-03T10:18:15.200Z,57.20
2022-08-03T10:20:19.702Z,58.10
2022-08-03T10:22:25.702Z,57.90
2022-08-03T10:24:35.422Z,57.30
2022-08-03T10:26:50.008Z,57.30
2022-08-03T10:28:57.154Z,57.40
2022-08-03T10:31:01.662Z,56.70
2022-08-03T10:33:50.099Z,57.20
2022-08-03T10:35:38.803Z,58.00
2022-08-03T10:37:56.735Z,57.60
2022-08-03T10:40:05.008Z,57.50
2022-08-03T10:42:14.580Z,57.20
2022-08-03T10:44:21.396Z,56.30
2022-08-03T10:46:27.196Z,56.60
2022-08-03T10:48:32.574Z,57.00
2022-08-03T10:50:37.108Z,57.00
2022-08-03T10:52:56.543Z,57.30
2022-08-03T10:55:20.683Z,57.10
2022-08-03T10:57:46.437Z,57.20
2022-08-03T11:00:00.670Z,57.60
2022-08-03T11:02:08.361Z,57.40
2022-08-03T11:04:20.827Z,56.60
2022-08-03T11:06:26.331Z,56.00
2022-08-03T11:08:32.423Z,55.90
2022-08-03T11:10:38.131Z,55.90
2022-08-03T11:12:44.211Z,55.30
2022-08-03T11:14:49.533Z,55.90
2022-08-03T11:17:14.449Z,55.90
2022-08-03T11:19:22.672Z,56.10
2022-08-03T11:21:57.132Z,55.50
2022-08-03T11:24:02.704Z,55.90
2022-08-03T11:26:15.856Z,56.10
2022-08-03T11:28:27.799Z,56.40
2022-08-03T11:30:32.508Z,56.50
2022-08-03T11:32:59.180Z,56.90
2022-08-03T11:35:10.933Z,57.20
2022-08-03T11:37:31.397Z,57.00
2022-08-03T11:39:40.606Z,56.80
2022-08-03T11:41:46.189Z,55.50
2022-08-03T11:43:50.523Z,55.40
2022-08-03T11:45:59.851Z,56.20
2022-08-03T11:48:17.525Z,55.30
2022-08-03T11:50:22.628Z,55.40
2022-08-03T11:52:28.999Z,55.70
2022-08-03T11:54:33.450Z,55.60
2022-08-03T11:56:49.538Z,55.00
2022-08-03T11:59:15.144Z,55.00
2022-08-03T12:01:23.096Z,54.90
2022-08-03T12:03:34.671Z,54.30
2022-08-03T12:05:42.235Z,54.50
2022-08-03T12:08:03.862Z,54.50
2022-08-03T12:10:11.593Z,53.20
2022-08-03T12:12:19.372Z,52.90
2022-08-03T12:14:48.637Z,52.30
2022-08-03T12:16:49.568Z,53.00
2022-08-03T12:18:57.621Z,53.30
2022-08-03T12:21:08.025Z,52.80
2022-08-03T12:23:14.311Z,53.50
2022-08-03T12:25:26.987Z,53.50
2022-08-03T12:27:45.509Z,52.30
2022-08-03T12:29:58.649Z,52.60
2022-08-03T12:32:03.715Z,53.10
2022-08-03T12:34:09.265Z,53.00
2022-08-03T12:36:13.477Z,52.50
2022-08-03T12:38:23.013Z,52.80
2022-08-03T12:40:28.456Z,52.70
2022-08-03T12:42:35.007Z,52.70
2022-08-03T12:44:41.478Z,52.80
2022-08-03T12:46:48.114Z,52.20
2022-08-03T12:49:07.052Z,52.30
2022-08-03T12:51:12.323Z,52.50
2022-08-03T12:53:31.269Z,52.80
2022-08-03T12:55:56.415Z,52.70
2022-08-03T12:58:02.314Z,52.90
2022-08-03T13:00:21.466Z,53.00
2022-08-03T13:02:33.790Z,51.80
2022-08-03T13:04:38.689Z,51.70
2022-08-03T13:06:42.915Z,51.50
2022-08-03T13:08:48.428Z,51.30
2022-08-03T13:10:53.265Z,52.20
2022-08-03T13:13:00.280Z,53.50
2022-08-03T13:15:04.664Z,52.10
2022-08-03T13:17:10.667Z,51.80
2022-08-03T13:19:15.399Z,51.80
2022-08-03T13:21:21.112Z,51.30
2022-08-03T13:23:25.400Z,51.10
2022-08-03T13:25:29.833Z,51.00
2022-08-03T13:28:03.828Z,51.20
2022-08-03T13:29:58.983Z,51.50
2022-08-03T13:32:03.376Z,52.00
2022-08-03T13:34:09.520Z,51.80
2022-08-03T13:36:13.781Z,51.60
2022-08-03T13:38:18.167Z,52.60
2022-08-03T13:40:30.135Z,52.40
2022-08-03T13:42:36.897Z,52.10
2022-08-03T13:44:41.457Z,52.40
2022-08-03T13:46:45.743Z,52.70
2022-08-03T13:48:49.993Z,52.30
2022-08-03T13:50:55.642Z,52.30
2022-08-03T13:53:00.089Z,51.60
2022-08-03T13:55:06.656Z,51.30
2022-08-03T13:58:02.299Z,51.40
2022-08-03T13:59:36.033Z,50.70
2022-08-03T14:01:55.042Z,51.00
2022-08-03T14:03:59.992Z,51.40
2022-08-03T14:06:05.804Z,51.60
2022-08-03T14:08:10.041Z,51.40
2022-08-03T14:10:15.086Z,51.80
2022-08-03T14:12:19.322Z,51.60
2022-08-03T14:14:23.640Z,51.50
2022-08-03T14:16:30.539Z,51.50
2022-08-03T14:18:37.491Z,51.80
2022-08-03T14:20:50.136Z,51.90
2022-08-03T14:23:00.342Z,51.20
2022-08-03T14:25:04.760Z,50.50
2022-08-03T14:27:15.172Z,50.10
2022-08-03T14:29:19.453Z,49.50
2022-08-03T14:32:10.876Z,50.00
2022-08-03T14:33:48.967Z,50.20
2022-08-03T14:35:54.096Z,50.40
2022-08-03T14:37:59.737Z,50.30
2022-08-03T14:40:04.165Z,49.40
2022-08-03T14:42:08.797Z,49.60
2022-08-03T14:44:13.020Z,50.10
2022-08-03T14:46:17.420Z,49.90
2022-08-03T14:50:34.712Z,50.10
2022-08-03T14:50:51.067Z,49.80
2022-08-03T14:52:56.117Z,49.40
2022-08-03T14:55:02.196Z,49.40
2022-08-03T14:57:08.179Z,49.80
2022-08-03T14:59:12.471Z,49.80
2022-08-03T15:02:04.849Z,49.80
2022-08-03T15:03:41.248Z,49.10
2022-08-03T15:05:47.251Z,49.70
2022-08-03T15:07:51.636Z,48.90
2022-08-03T15:09:55.877Z,49.20
2022-08-03T15:12:01.878Z,49.60
2022-08-03T15:14:09.131Z,49.80
2022-08-03T15:16:13.883Z,50.10
2022-08-03T15:18:18.345Z,50.30
2022-08-03T15:20:39.342Z,50.80
2022-08-03T15:22:46.930Z,50.90
2022-08-03T15:24:51.385Z,50.90
2022-08-03T15:26:55.594Z,51.10
2022-08-03T15:29:01.314Z,51.50
2022-08-03T15:31:05.707Z,51.90
2022-08-03T15:33:09.963Z,52.10
2022-08-03T15:35:14.255Z,52.10
2022-08-03T15:37:18.472Z,51.90
2022-08-03T15:39:22.701Z,52.20
2022-08-03T15:41:27.500Z,52.20
2022-08-03T15:43:31.648Z,51.90
2022-08-03T15:45:37.667Z,52.00
2022-08-03T15:47:41.856Z,51.90
2022-08-03T15:49:46.061Z,52.40
2022-08-03T15:51:50.255Z,52.30
2022-08-03T15:53:54.522Z,52.50
2022-08-03T15:55:58.793Z,52.70
2022-08-03T15:59:09.842Z,52.90
2022-08-03T16:00:33.508Z,53.20
2022-08-03T16:02:40.178Z,53.50
2022-08-03T16:04:44.394Z,53.90
2022-08-03T16:06:48.669Z,53.70
2022-08-03T16:08:52.915Z,53.50
2022-08-03T16:10:57.128Z,53.40
2022-08-03T16:13:03.572Z,53.70
2022-08-03T16:15:09.222Z,53.90
2022-08-03T16:17:13.444Z,54.00
2022-08-03T16:19:19.139Z,54.20
2022-08-03T16:21:23.399Z,53.70
2022-08-03T16:23:31.623Z,53.90
2022-08-03T16:25:38.386Z,53.50
2022-08-03T16:28:03.162Z,53.80
2022-08-03T16:30:09.692Z,53.60
2022-08-03T16:32:14.053Z,54.00
2022-08-03T16:34:19.903Z,54.00
2022-08-03T16:36:24.220Z,54.80
2022-08-03T16:38:28.537Z,55.50
2022-08-03T16:40:33.690Z,55.20
2022-08-03T16:42:38.555Z,55.20
2022-08-03T16:44:43.111Z,55.10
2022-08-03T16:46:47.669Z,55.30
2022-08-03T16:48:51.964Z,55.40
2022-08-03T16:50:57.615Z,55.50
2022-08-03T16:53:03.687Z,56.00
2022-08-03T16:55:09.902Z,56.10
2022-08-03T16:57:15.206Z,56.30
2022-08-03T16:59:19.619Z,56.50
2022-08-03T17:01:41.588Z,57.10
2022-08-03T17:04:01.646Z,56.90
2022-08-03T17:06:09.859Z,57.20
2022-08-03T17:08:14.297Z,57.00
2022-08-03T17:10:21.966Z,57.10
2022-08-03T17:12:31.418Z,57.20
2022-08-03T17:14:35.709Z,57.00
2022-08-03T17:16:52.215Z,56.70
2022-08-03T17:18:58.600Z,57.00
2022-08-03T17:21:11.523Z,57.20
2022-08-03T17:23:34.589Z,57.10
2022-08-03T17:26:01.751Z,57.10
2022-08-03T17:28:49.290Z,57.20
2022-08-03T17:30:45.499Z,57.00
2022-08-03T17:32:57.017Z,57.30
2022-08-03T17:35:02.587Z,57.40
2022-08-03T17:37:27.200Z,57.30
2022-08-03T17:42:05.464Z,57.50
2022-08-03T17:44:39.927Z,57.50
2022-08-03T17:46:51.505Z,57.70
2022-08-03T17:48:58.973Z,57.90
2022-08-03T17:51:08.327Z,58.00
2022-08-03T17:53:25.330Z,58.30
2022-08-03T17:55:55.632Z,58.30
2022-08-03T17:58:03.331Z,58.50
2022-08-03T18:00:23.279Z,58.30
2022-08-03T18:02:55.049Z,58.40
2022-08-03T18:05:16.305Z,58.80
2022-08-03T18:07:24.328Z,59.00
2022-08-03T18:10:06.730Z,58.80
2022-08-03T18:12:19.873Z,59.20
2022-08-03T18:14:33.487Z,59.00
2022-08-03T18:16:46.746Z,59.30
2022-08-03T18:18:55.240Z,59.50
2022-08-03T18:21:06.420Z,59.90
2022-08-03T18:23:24.970Z,59.80
2022-08-03T18:25:45.606Z,59.90
2022-08-03T18:27:55.470Z,60.10
2022-08-03T18:30:01.703Z,60.30
2022-08-03T18:32:16.732Z,60.30
2022-08-03T18:34:32.463Z,60.50
2022-08-03T18:36:38.972Z,60.10
2022-08-03T18:38:44.023Z,60.50
2022-08-03T18:40:52.783Z,60.50
2022-08-03T18:42:57.182Z,60.50
2022-08-03T18:45:54.944Z,60.70
2022-08-03T18:47:51.651Z,60.60
2022-08-03T18:50:08.887Z,60.90
2022-08-03T18:52:18.345Z,61.20
2022-08-03T18:54:45.749Z,61.50
2022-08-03T18:56:55.676Z,61.50
2022-08-03T18:59:05.606Z,61.60
2022-08-03T19:01:59.622Z,61.70
2022-08-03T19:03:48.348Z,61.80
2022-08-03T19:06:02.624Z,61.90
2022-08-03T19:08:18.336Z,61.80
2022-08-03T19:10:27.856Z,61.90
2022-08-03T19:12:39.582Z,62.20
2022-08-03T19:14:47.863Z,62.40
2022-08-03T19:16:57.777Z,62.50
2022-08-03T19:19:02.687Z,62.50
2022-08-03T19:21:15.445Z,62.50
2022-08-03T19:23:24.389Z,62.60
2022-08-03T19:25:35.078Z,62.70
2022-08-03T19:28:11.349Z,62.50
2022-08-03T19:30:32.255Z,62.30
2022-08-03T19:32:37.017Z,62.50
2022-08-03T19:34:42.083Z,62.70
2022-08-03T19:36:50.893Z,63.00
2022-08-03T19:38:56.762Z,63.40
2022-08-03T19:41:07.454Z,63.70
2022-08-03T19:43:21.910Z,63.90
2022-08-03T19:46:06.189Z,64.20
2022-08-03T19:48:09.878Z,64.50
2022-08-03T19:50:14.676Z,64.90
2022-08-03T19:52:24.371Z,64.80
2022-08-03T19:57:04.811Z,64.90
2022-08-03T20:04:02.503Z,64.80
2022-08-03T20:06:07.329Z,64.90
2022-08-03T20:08:11.802Z,65.10
2022-08-03T20:10:16.775Z,65.10
2022-08-03T20:12:28.254Z,65.00
2022-08-03T20:14:34.847Z,65.00
2022-08-03T20:16:39.112Z,64.90
2022-08-03T20:18:43.419Z,64.70
2022-08-03T20:20:51.655Z,64.70
2022-08-03T20:22:58.393Z,64.70
2022-08-03T20:25:09.265Z,64.40
2022-08-03T20:27:18.674Z,64.50
2022-08-03T20:29:42.595Z,64.10
2022-08-03T20:31:56.504Z,64.00
2022-08-03T20:34:01.699Z,64.10
2022-08-03T20:36:07.028Z,64.10
2022-08-03T20:38:14.836Z,64.30
2022-08-03T20:40:20.348Z,64.40
2022-08-03T20:42:24.856Z,64.50
2022-08-03T20:44:29.503Z,64.50
2022-08-03T20:49:00.070Z,64.60
2022-08-03T20:51:19.339Z,64.50
2022-08-03T20:53:57.374Z,64.70
2022-08-03T20:56:02.449Z,64.60
2022-08-03T20:58:07.892Z,64.50
2022-08-03T21:00:13.765Z,64.60
2022-08-03T21:02:19.613Z,64.90
2022-08-03T21:04:34.306Z,64.70
2022-08-03T21:06:45.761Z,65.00
2022-08-03T21:09:05.315Z,65.20
2022-08-03T21:11:17.415Z,64.80
2022-08-03T21:13:09.042Z,64.60
2022-08-03T21:13:09.324Z,64.70
2022-08-03T21:13:12.958Z,64.60
2022-08-03T21:13:25.810Z,65.10
2022-08-03T21:16:06.614Z,65.30
2022-08-03T21:17:57.655Z,65.60
2022-08-03T21:20:09.324Z,66.00
2022-08-03T21:22:15.753Z,66.30
2022-08-03T21:24:24.686Z,66.90
2022-08-03T21:26:33.278Z,67.10
2022-08-03T21:28:39.225Z,67.00
2022-08-03T21:30:43.721Z,67.10
2022-08-03T21:32:49.389Z,67.20
2022-08-03T21:34:53.974Z,67.10
2022-08-03T21:36:59.738Z,67.30
2022-08-03T21:39:06.456Z,67.50
2022-08-03T21:41:11.992Z,67.30
2022-08-03T21:43:16.332Z,67.30
2022-08-03T21:45:20.518Z,67.60
2022-08-03T21:47:25.630Z,67.80
2022-08-03T21:50:02.694Z,67.70
2022-08-03T21:52:04.314Z,67.60
2022-08-03T21:54:08.711Z,67.70
2022-08-03T21:56:14.459Z,67.50
2022-08-03T21:58:21.412Z,67.70
2022-08-03T22:00:25.714Z,67.90
2022-08-03T22:02:32.344Z,67.80
2022-08-03T22:04:55.378Z,68.00
2022-08-03T22:07:02.557Z,68.20
2022-08-03T22:09:08.664Z,68.60
2022-08-03T22:11:13.222Z,69.00
2022-08-03T22:13:43.970Z,69.20
2022-08-03T22:15:44.248Z,69.50
2022-08-03T22:17:54.957Z,69.50
2022-08-03T22:20:01.589Z,70.00
2022-08-03T22:22:13.944Z,70.50
2022-08-03T22:24:23.961Z,70.70
2022-08-03T22:26:35.248Z,70.80
2022-08-03T22:28:40.355Z,71.10
2022-08-03T22:30:44.830Z,71.50
2022-08-03T22:32:53.074Z,71.90
2022-08-03T22:34:58.251Z,71.80
2022-08-03T22:37:05.803Z,72.10
2022-08-03T22:39:12.760Z,72.10
2022-08-03T22:41:30.827Z,72.10
2022-08-03T22:43:37.041Z,72.30
2022-08-03T22:46:09.220Z,72.30
2022-08-03T22:48:09.864Z,72.50
2022-08-03T22:50:32.344Z,72.90
2022-08-03T22:52:39.579Z,73.10
2022-08-03T22:54:46.134Z,73.50
2022-08-03T22:56:51.806Z,73.90
2022-08-03T22:58:56.070Z,73.70
2022-08-03T23:01:04.949Z,73.80
2022-08-03T23:03:09.971Z,74.50
2022-08-03T23:06:00.304Z,74.80
2022-08-03T23:07:42.715Z,74.70
2022-08-03T23:09:50.092Z,74.50
2022-08-03T23:11:57.198Z,74.40
2022-08-03T23:14:07.558Z,74.60
2022-08-03T23:16:12.645Z,75.00
2022-08-03T23:18:17.068Z,75.30
2022-08-03T23:20:22.238Z,75.50
2022-08-03T23:22:31.277Z,75.20
2022-08-03T23:24:37.057Z,74.70
2022-08-03T23:26:43.939Z,74.80
2022-08-03T23:28:49.460Z,74.90
2022-08-03T23:30:55.166Z,74.80
2022-08-03T23:33:04.073Z,75.10
2022-08-03T23:36:20.090Z,75.20
2022-08-03T23:38:03.947Z,74.90
2022-08-03T23:40:17.259Z,74.80
2022-08-03T23:42:23.163Z,75.00
2022-08-03T23:44:30.934Z,75.20
2022-08-03T23:46:37.148Z,75.00
2022-08-03T23:48:41.416Z,75.10
2022-08-03T23:50:50.187Z,74.80
2022-08-03T23:53:00.893Z,75.00
2022-08-03T23:55:17.408Z,75.20
2022-08-03T23:57:33.991Z,75.40
2022-08-03T23:59:48.689Z,75.10
